• Join FlightAware (Why Join?)
  • Login
  • US Flag 
04:05PM EST


 

Airport Tracker/Info


-or-


 

Live Flight TrackerFlight Track Log ✈ XFL8 ✈ 21-Apr-2013 ✈ KLAS - KISP

Flight Track Log - Related Links

Times and Time Zones

All times are in EDT time to prevent confusion due to time zone crossing. See the XFL8 flight status page for this flight to view local times or setup timezone preferences in your user account.

Time Position Orientation Groundspeed Altitude Reporting Facility
EDT Latitude Longitude Course Direction KTS MPH feet Rate Location/Type
01:06PM 36.0758 -115.1764 268° West 184 212 3,200  Level Los Angeles Center
01:06PM 36.0747 -115.2111 268° West 232 267 4,300 2,460 Climbing Los Angeles Center
01:07PM 36.0972 -115.2861 290° West 243 280 6,800 2,340 Climbing Los Angeles Center
01:08PM 36.1619 -115.2756 North 257 296 9,100 2,040 Climbing Los Angeles Center
01:08PM 36.1694 -115.2633 53° Northeast 260 299 9,400 2,040 Climbing Los Angeles Center
01:09PM 36.1958 -115.1750 70° East 272 313 11,800 2,160 Climbing Los Angeles Center
01:10PM 36.1969 -115.0697 89° East 297 342 13,900 1,920 Climbing Los Angeles Center
01:11PM 36.1986 -114.9161 89° East 365 420 15,800 1,500 Climbing Los Angeles Center
01:12PM 36.1997 -114.8033 89° East 396 456 17,000 1,560 Climbing Los Angeles Center
01:14PM 36.1978 -114.6256 91° East 425 489 19,100 1,920 Climbing Los Angeles Center
01:15PM 36.1953 -114.4722 91° East 441 507 21,000 1,980 Climbing Los Angeles Center
01:16PM 36.1939 -114.3217 91° East 440 506 23,300 2,100 Climbing Los Angeles Center
01:17PM 36.2236 -114.1497 78° East 438 504 25,400 1,740 Climbing Los Angeles Center
01:18PM 36.2675 -114.0100 69° East 435 501 26,900 1,260 Climbing Los Angeles Center
01:19PM 36.3147 -113.8681 68° East 441 507 28,100 1,020 Climbing Los Angeles Center
01:20PM 36.3625 -113.7206 68° East 455 524 29,100 960 Climbing Los Angeles Center
01:21PM 36.4128 -113.5700 67° East 467 537 30,100 960 Climbing Los Angeles Center
01:22PM 36.4617 -113.4164 68° East 475 547 31,100 960 Climbing Los Angeles Center
01:23PM 36.5461 -113.1519 68° East 483 556 32,800 1,020 Climbing Denver Center
01:24PM 36.5672 -113.0939 66° East 482 555 33,300 1,260 Climbing Los Angeles Center
01:25PM 36.6233 -112.9128 69° East 475 547 34,700 960 Climbing Los Angeles Center
01:26PM 36.6706 -112.7631 68° East 469 540 35,400 540 Climbing Los Angeles Center
01:27PM 36.7161 -112.6122 69° East 469 540 35,900 480 Climbing Los Angeles Center
01:28PM 36.7647 -112.4583 68° East 475 547 36,400 480 Climbing Los Angeles Center
01:29PM 36.8117 -112.3033 69° East 479 551 36,900 240 Climbing Los Angeles Center
01:30PM 36.8692 -112.1164 69° East 483 556 37,000 60 Climbing Los Angeles Center
01:31PM 36.8889 -112.0522 69° East 488 562 37,000  Level Denver Center
01:32PM 36.9486 -111.8569 69° East 501 577 37,000  Level Denver Center
01:33PM 36.9989 -111.6919 69° East 507 583 37,000  Level Denver Center
01:34PM 37.0497 -111.5258 69° East 512 589 37,000  Level Denver Center
01:35PM 37.0983 -111.3608 70° East 510 587 37,000  Level Denver Center
01:36PM 37.1469 -111.1956 70° East 509 586 37,000 300 Level Denver Center
01:37PM 37.1944 -111.0308 70° East 507 583 37,700 480 Climbing Denver Center
01:38PM 37.2472 -110.8397 71° East 492 566 38,000 120 Climbing Denver Center
01:39PM 37.2947 -110.6769 70° East 495 570 38,000  Level Denver Center
01:40PM 37.3414 -110.5133 70° East 499 574 38,000  Level Denver Center
01:41PM 37.3889 -110.3472 70° East 504 580 38,000  Level Denver Center
01:42PM 37.4378 -110.1756 70° East 500 575 38,000  Level Denver Center
01:43PM 37.4897 -109.9900 71° East 500 575 38,000  Level Denver Center
01:44PM 37.5342 -109.8322 70° East 498 573 38,000 180 Level Denver Center
01:45PM 37.5842 -109.6511 71° East 490 564 38,400 420 Climbing Denver Center
01:46PM 37.6278 -109.4975 70° East 487 560 38,900 240 Climbing Denver Center
01:47PM 37.6758 -109.3214 71° East 477 549 39,000  Climbing Denver Center
01:48PM 37.7186 -109.1650 71° East 488 562 39,000  Level Denver Center
01:49PM 37.7603 -109.0078 71° East 493 567 39,000  Level Denver Center
01:50PM 37.8103 -108.8219 71° East 500 575 39,000  Level Denver Center
01:51PM 37.8531 -108.6619 71° East 501 577 39,000  Level Denver Center
01:52PM 37.9028 -108.4733 71° East 503 579 39,000  Level Denver Center
01:53PM 37.9467 -108.3117 71° East 506 582 39,000  Level Denver Center
01:54PM 37.9961 -108.1211 72° East 509 586 39,000  Level Denver Center
01:55PM 38.0394 -107.9569 71° East 514 592 39,000  Level Denver Center
01:57PM 38.0858 -107.7764 72° East 512 589 39,000  Level Denver Center
01:58PM 38.1344 -107.5828 72° East 516 594 39,000  Level Denver Center
01:59PM 38.1778 -107.4161 72° East 519 597 39,000  Level Denver Center
02:00PM 38.2272 -107.2225 72° East 518 596 39,000  Level Denver Center
02:01PM 38.2692 -107.0522 73° East 524 603 39,000  Level Denver Center
02:02PM 38.3144 -106.8758 72° East 525 604 39,000  Level Denver Center
02:03PM 38.3569 -106.6992 73° East 523 602 39,000  Level Denver Center
02:04PM 38.4000 -106.5206 73° East 525 604 39,000  Level Denver Center
02:05PM 38.4436 -106.3425 73° East 529 609 39,000  Level Denver Center
02:06PM 38.4967 -106.1214 73° East 528 608 39,000  Level Denver Center
02:07PM 38.5389 -105.9492 73° East 528 608 39,000  Level Denver Center
02:08PM 38.5839 -105.7544 73° East 531 611 39,000  Level Denver Center
02:09PM 38.6278 -105.5756 73° East 527 606 39,000  Level Denver Center
02:10PM 38.6697 -105.3939 73° East 529 609 39,000  Level Denver Center
02:11PM 38.7122 -105.2142 73° East 526 605 39,000  Level Denver Center
02:12PM 38.7531 -105.0350 74° East 523 602 39,000  Level Denver Center
02:13PM 38.7931 -104.8578 74° East 517 595 39,000  Level Denver Center
02:14PM 38.8400 -104.6533 74° East 511 588 39,000  Level Denver Center
02:15PM 38.8789 -104.4794 74° East 506 582 39,000  Level Denver Center
02:16PM 38.9181 -104.3058 74° East 506 582 39,000  Level Denver Center
02:17PM 38.9564 -104.1297 74° East 509 586 39,000  Level Denver Center
02:18PM 38.9947 -103.9547 74° East 507 583 39,000  Level Denver Center
02:19PM 39.0333 -103.7772 74° East 511 588 39,000  Level Denver Center
02:20PM 39.0850 -103.5408 74° East 511 588 39,000  Level Denver Center
02:21PM 39.1236 -103.3650 74° East 508 585 39,000  Level Denver Center
02:23PM 39.1608 -103.1867 75° East 511 588 39,000  Level Denver Center
02:24PM 39.1975 -103.0081 75° East 511 588 39,000  Level Denver Center
02:25PM 39.2339 -102.8314 75° East 507 583 39,000  Level Denver Center
02:26PM 39.2694 -102.6600 75° East 504 580 39,000  Level Denver Center
02:27PM 39.3103 -102.4653 75° East 504 580 39,000  Level Denver Center
02:28PM 39.3472 -102.2858 75° East 504 580 39,000  Level Denver Center
02:29PM 39.3808 -102.1169 76° East 507 583 39,000  Level Denver Center
02:30PM 39.4197 -101.9183 76° East 511 588 39,000  Level Denver Center
02:31PM 39.4531 -101.7514 75° East 506 582 39,000  Level Denver Center
02:32PM 39.4911 -101.5539 76° East 509 586 39,000  Level Denver Center
02:33PM 39.5244 -101.3858 76° East 507 583 39,000  Level Denver Center
02:34PM 39.5622 -101.1881 76° East 508 585 39,000  Level Denver Center
02:35PM 39.5950 -101.0189 76° East 507 583 39,000  Level Denver Center
02:36PM 39.6319 -100.8172 77° East 514 592 39,000  Level Denver Center
02:37PM 39.6647 -100.6467 76° East 512 589 39,000  Level Denver Center
02:38PM 39.6961 -100.4764 76° East 509 586 39,000  Level Denver Center
02:39PM 39.7328 -100.2761 77° East 512 589 39,000  Level Denver Center
02:40PM 39.7644 -100.1031 77° East 515 593 39,000  Level Denver Center
02:41PM 39.8014 -99.8972 77° East 516 594 39,000  Level Denver Center
02:42PM 39.8336 -99.7172 77° East 514 592 39,000  Level Denver Center
02:43PM 39.8656 -99.5353 77° East 517 595 39,000  Level Denver Center
02:44PM 39.8975 -99.3536 77° East 516 594 39,000  Level Denver Center
02:45PM 39.9278 -99.1742 78° East 512 589 39,000  Level Denver Center
02:46PM 39.9592 -98.9939 77° East 512 589 39,000  Level Denver Center
02:47PM 39.9894 -98.8172 77° East 507 583 39,000  Level Minneapolis Center
02:48PM 40.0192 -98.6400 78° East 504 580 39,000  Level Minneapolis Center
02:49PM 40.0492 -98.4633 77° East 501 577 39,000  Level Minneapolis Center
02:50PM 40.0772 -98.2864 78° East 501 577 39,000  Level Minneapolis Center
02:51PM 40.1064 -98.1097 78° East 500 575 39,000  Level Minneapolis Center
02:52PM 40.1408 -97.8964 78° East 501 577 39,000  Level Minneapolis Center
02:53PM 40.1697 -97.7203 78° East 499 574 39,000  Level Minneapolis Center
02:54PM 40.1978 -97.5436 78° East 498 573 39,000  Level Minneapolis Center
02:55PM 40.2247 -97.3636 79° East 503 579 39,000  Level Minneapolis Center
02:56PM 40.2533 -97.1867 78° East 505 581 39,000  Level Minneapolis Center
02:57PM 40.2881 -97.0106 75° East 503 579 39,000  Level Minneapolis Center
02:58PM 40.3211 -96.8311 76° East 505 581 39,000  Level Minneapolis Center
02:59PM 40.3542 -96.6522 76° East 507 583 39,000  Level Minneapolis Center
03:00PM 40.3931 -96.4400 76° East 503 579 39,000  Level Minneapolis Center
03:01PM 40.4258 -96.2619 76° East 505 581 39,000  Level Minneapolis Center
03:02PM 40.4589 -96.0828 76° East 507 583 39,000  Level Minneapolis Center
03:04PM 40.4903 -95.9047 77° East 506 582 39,000  Level Minneapolis Center
03:05PM 40.5217 -95.7247 77° East 508 585 39,000  Level Minneapolis Center
03:06PM 40.5544 -95.5469 76° East 505 581 39,000  Level Minneapolis Center
03:07PM 40.5914 -95.3314 77° East 506 582 39,000  Level Minneapolis Center
03:08PM 40.6225 -95.1531 77° East 504 580 39,000  Level Minneapolis Center
03:09PM 40.6536 -94.9747 77° East 502 578 39,000  Level Minneapolis Center
03:10PM 40.6831 -94.7983 78° East 499 574 39,000  Level Minneapolis Center
03:11PM 40.7119 -94.6211 78° East 497 572 39,000  Level Minneapolis Center
03:12PM 40.7444 -94.4225 78° East 499 574 39,000  Level Minneapolis Center
03:13PM 40.7731 -94.2453 78° East 498 573 39,000  Level Minneapolis Center
03:14PM 40.7997 -94.0697 79° East 493 567 39,000  Level Minneapolis Center
03:15PM 40.8231 -93.9269 78° East 498 573 39,000  Level Minneapolis Center
03:16PM 40.8581 -93.7133 78° East 498 573 39,000  Level Minneapolis Center
03:17PM 40.8858 -93.5358 78° East 498 573 39,000  Level Minneapolis Center
03:18PM 40.9139 -93.3575 78° East 496 571 39,000  Level Minneapolis Center
03:19PM 40.9417 -93.1792 78° East 497 572 39,000  Level Minneapolis Center
03:20PM 40.9750 -92.9639 78° East 499 574 39,000  Level Minneapolis Center
03:21PM 40.9900 -92.8547 80° East 497 572 39,000  Level Chicago Center
03:22PM 41.0175 -92.6756 78° East 497 572 39,000  Level Chicago Center
03:23PM 41.0500 -92.4600 79° East 498 573 39,000  Level Chicago Center
03:24PM 41.0756 -92.2814 79° East 496 571 39,000  Level Chicago Center
03:25PM 41.1011 -92.1011 79° East 498 573 39,000  Level Chicago Center
03:26PM 41.1264 -91.9211 79° East 499 574 39,000  Level Chicago Center
03:27PM 41.1517 -91.7436 79° East 494 568 39,000  Level Chicago Center
03:28PM 41.1792 -91.5472 79° East 495 570 39,000  Level Chicago Center
03:29PM 41.2033 -91.3661 80° East 496 571 39,000  Level Chicago Center
03:30PM 41.2281 -91.1872 80° East 494 568 39,000  Level Chicago Center
03:31PM 41.2517 -91.0081 80° East 493 567 39,000  Level Chicago Center
03:32PM 41.2756 -90.8289 80° East 492 566 39,000  Level Chicago Center
03:33PM 41.3042 -90.6133 80° East 493 567 39,000  Level Chicago Center
03:34PM 41.3261 -90.4344 81° East 489 563 39,000  Level Chicago Center
03:35PM 41.3494 -90.2517 80° East 498 573 39,000  Level Chicago Center
03:36PM 41.3722 -90.0706 80° East 494 568 39,000  Level Chicago Center
03:37PM 41.3950 -89.8861 81° East 500 575 39,000  Level Chicago Center
03:38PM 41.4169 -89.7042 81° East 496 571 39,000  Level Chicago Center
03:39PM 41.4394 -89.5211 81° East 498 573 39,000  Level Chicago Center
03:40PM 41.4603 -89.3389 81° East 496 571 39,000  Level Chicago Center
03:41PM 41.4836 -89.1392 81° East 498 573 39,000  Level Chicago Center
03:42PM 41.5044 -88.9569 81° East 499 574 39,000  Level Chicago Center
03:43PM 41.5283 -88.7375 82° East 503 579 39,000  Level Chicago Center
03:44PM 41.5492 -88.5542 81° East 502 578 39,000  Level Chicago Center
03:45PM 41.5681 -88.3692 82° East 503 579 39,000  Level Chicago Center
03:46PM 41.5875 -88.1819 82° East 504 580 39,000  Level Chicago Center
03:47PM 41.5877 -88.1755 82° East  Level FlightAware Approximate
03:47PM 41.6078 -87.9944 82° East 501 577 39,000  Level Chicago Center
03:49PM 41.6278 -87.8061 82° East 507 583 39,000  Level Chicago Center
03:50PM 41.6458 -87.6219 82° East 501 577 39,000  Level Chicago Center
03:51PM 41.6647 -87.4383 82° East 500 575 39,000  Level Chicago Center
03:52PM 41.6864 -87.2161 82° East 504 580 39,000  Level Chicago Center
03:53PM 41.7047 -87.0319 82° East 502 578 39,000  Level Chicago Center
03:54PM 41.7214 -86.8492 83° East 498 573 39,000  Level Chicago Center
03:56PM 41.7544 -86.4889 83° East 498 573 39,000  Level Chicago Center
03:57PM 41.7744 -86.2697 83° East 496 571 39,000  Level Chicago Center
03:58PM 41.7908 -86.0864 83° East 495 570 39,000  Level Chicago Center
03:59PM 41.8072 -85.9025 83° East 496 571 39,000  Level Chicago Center
04:00PM 41.8222 -85.7175 84° East 496 571 39,000  Level Chicago Center
04:01PM 41.8383 -85.5300 83° East 499 574 39,000  Level Chicago Center
04:02PM 41.8533 -85.3431 84° East 496 571 39,000  Level Chicago Center
04:03PM 41.8683 -85.1561 84° East 497 572 39,000  Level Chicago Center
04:04PM 41.8831 -85.0017 83° East 500 575 39,000  Level Cleveland Center
04:05PM 41.8986 -84.8156 84° East 500 575 39,000  Level Cleveland Center
04:06PM 41.9114 -84.6322 85° East 500 575 39,000  Level Cleveland Center
04:07PM 41.9217 -84.4514 86° East 500 575 39,000  Level Cleveland Center
04:08PM 41.9347 -84.2456 85° East 500 575 39,000  Level Cleveland Center
04:09PM 41.9469 -84.0592 85° East 500 575 39,000  Level Cleveland Center
04:10PM 41.9586 -83.8756 85° East 500 575 39,000  Level Cleveland Center
04:11PM 41.9722 -83.6889 84° East 500 575 39,000  Level Cleveland Center
04:12PM 41.9853 -83.5025 85° East 495 570 39,000  Level Cleveland Center
04:13PM 41.9983 -83.3131 85° East 503 579 39,000  Level Cleveland Center
04:14PM 42.0089 -83.1289 86° East 503 579 39,000  Level Cleveland Center
04:15PM 42.0186 -82.9589 86° East 498 573 39,000  Level Cleveland Center
04:16PM 42.0289 -82.7692 86° East 498 573 39,000  Level Cleveland Center
04:17PM 42.0406 -82.5850 85° East 498 573 39,000  Level Cleveland Center
04:18PM 42.0456 -82.3978 88° East 498 573 39,000  Level Cleveland Center
04:19PM 42.0569 -82.2053 85° East 498 573 39,000  Level Cleveland Center
04:20PM 42.0614 -82.0178 88° East 498 573 39,000  Level Cleveland Center
04:21PM 42.0681 -81.8111 87° East 498 573 39,000  Level Cleveland Center
04:22PM 42.0742 -81.6208 87° East 499 574 39,000  Level Cleveland Center
04:23PM 42.0778 -81.4281 88° East 504 580 39,000  Level Cleveland Center
04:24PM 42.0831 -81.2378 88° East 504 580 39,000  Level Cleveland Center
04:25PM 42.0861 -81.0447 89° East 509 586 39,000  Level Cleveland Center
04:26PM 42.0908 -80.8544 88° East 509 586 39,000  Level Cleveland Center
04:27PM 42.0933 -80.6617 89° East 514 592 39,000  Level Cleveland Center
04:28PM 42.0975 -80.4881 88° East 514 592 39,000  Level Cleveland Center
04:29PM 42.0992 -80.2950 89° East 514 592 39,000  Level Cleveland Center
04:30PM 42.1028 -80.1019 88° East 514 592 39,000  Level Cleveland Center
04:31PM 42.1058 -79.8919 89° East 509 586 39,000  Level Cleveland Center
04:32PM 42.1089 -79.6986 89° East 509 586 39,000  Level Cleveland Center
04:33PM 42.1072 -79.5083 91° East 515 593 39,000  Level Cleveland Center
04:34PM 42.1114 -79.3153 88° East 515 593 39,000  Level Cleveland Center
04:35PM 42.1111 -79.1222 90° East 515 593 39,000  Level Cleveland Center
04:36PM 42.1128 -78.9289 89° East 515 593 39,000  Level Cleveland Center
04:37PM 42.1119 -78.7358 90° East 515 593 39,000  Level Cleveland Center
04:38PM 42.1108 -78.5428 90° East 515 593 39,000  Level Cleveland Center
04:39PM 42.1114 -78.3467 90° East 515 593 39,000  Level Cleveland Center
04:41PM 42.1081 -77.8853 90° East 515 593 39,000  Level New York Center
04:42PM 42.1072 -77.6894 90° East 520 598 39,000  Level New York Center
04:43PM 42.1058 -77.4964 90° East 520 598 39,000  Level New York Center
04:44PM 42.1022 -77.3003 91° East 520 598 39,000  Level New York Center
04:45PM 42.1003 -77.1044 91° East 520 598 39,000  Level New York Center
04:47PM 42.0981 -76.7889 90° East 524 603 39,000  Level Boston Center
04:48PM 42.0931 -76.5897 92° East 529 609 39,000 -480 Level Boston Center
04:49PM 42.0933 -76.4078 90° East 534 615 38,100 -960 Descending Boston Center
04:50PM 42.0872 -76.2172 92° East 529 609 37,100 -1,020 Descending Boston Center
04:51PM 42.0853 -76.0239 91° East 518 596 36,100 -1,020 Descending Boston Center
04:52PM 42.0808 -75.8278 92° East 518 596 35,100 -600 Descending Boston Center
04:53PM 42.0761 -75.6372 92° East 518 596 35,000 -60 Descending Boston Center
04:54PM 42.0689 -75.4411 93° East 518 596 35,000 -300 Level Boston Center
04:55PM 42.0739 -75.2400 88° East 523 602 34,400 -1,020 Descending Boston Center
04:56PM 42.0911 -75.0478 83° East 523 602 33,000 -1,320 Descending Boston Center
04:57PM 42.1072 -74.8889 82° East 523 602 31,800 -1,500 Descending Boston Center
04:58PM 42.1306 -74.6572 82° East 523 602 30,100 -1,260 Descending Boston Center
04:59PM 42.1489 -74.4675 83° East 517 595 29,300 -720 Descending Boston Center
05:00PM 42.1711 -74.2553 82° East 517 595 28,700 -840 Descending Boston Center
05:01PM 42.1908 -74.0625 82° East 517 595 27,700 -1,020 Descending Boston Center
05:02PM 42.2058 -73.8778 84° East 517 595 26,700 -1,080 Descending Boston Center
05:03PM 42.2247 -73.6822 83° East 512 589 25,600 -1,140 Descending Boston Center
05:04PM 42.2433 -73.5003 82° East 512 589 24,500 -1,140 Descending Boston Center
05:05PM 42.2553 -73.3264 85° East 507 583 23,400 -1,140 Descending Boston Center
05:06PM 42.2503 -73.1525 92° East 468 539 22,300 -1,020 Descending Boston Center
05:07PM 42.1697 -73.0228 130° Southeast 423 487 21,400 -1,020 Descending Boston Center
05:08PM 42.0806 -72.8961 133° Southeast 428 493 20,300 -1,140 Descending Boston Center
05:09PM 41.9997 -72.7725 131° Southeast 442 509 19,200 -900 Descending Boston Center
05:10PM 41.9189 -72.6522 132° Southeast 442 509 18,500 -1,140 Descending Boston Center
05:11PM 41.8606 -72.5406 125° Southeast 426 490 17,100 -2,040 Descending Boston Center
05:12PM 41.7897 -72.4150 127° Southeast 414 476 14,800 -2,340 Descending Boston Center
05:13PM 41.7272 -72.3067 128° Southeast 399 459 12,700 -1,980 Descending Boston Center
05:14PM 41.6625 -72.1928 127° Southeast 380 437 11,000 -840 Descending Boston Center
05:15PM 41.6017 -72.0847 127° Southeast 376 433 11,000 -300 Level Boston Center
05:16PM 41.5036 -72.0436 163° South 371 427 10,500 -480 Descending Boston Center
05:17PM 41.4161 -72.1053 208° Southwest 360 414 10,100 -240 Descending Boston Center
05:18PM 41.3000 -72.2500 223° Southwest 360 414 10,000 -60 Descending New York TRACON
05:19PM 41.2333 -72.3333 223° Southwest 358 412 10,000  Level New York TRACON
05:20PM 41.1667 -72.4333 228° Southwest 337 388 10,000 -540 Level New York TRACON
05:21PM 41.1167 -72.5167 231° Southwest 281 323 9,000 -1,320 Descending New York TRACON
05:22PM 41.0667 -72.5833 225° Southwest 283 326 7,500 -1,380 Descending New York TRACON
05:23PM 41.0167 -72.6667 232° Southwest 274 315 6,400 -1,080 Descending New York TRACON
05:24PM 40.9667 -72.7333 225° Southwest 273 314 5,400 -1,020 Descending New York TRACON
05:25PM 40.9167 -72.8000 225° Southwest 267 307 4,400 -1,020 Descending New York TRACON
05:26PM 40.8667 -72.8667 225° Southwest 263 303 3,400 -840 Descending New York TRACON
05:27PM 40.8167 -72.9333 225° Southwest 230 265 2,800 -900 Descending New York TRACON
05:28PM 40.7833 -73.0000 237° Southwest 207 238 1,700 -1,020 Descending New York TRACON
05:29PM 40.7667 -73.0667 252° West 156 180 800 -900 Descending New York TRACON
05:31PM 40.7833 -73.1000 237° Southwest  Level FlightAware Approximate
05:38PM 40.7952 -73.1002 237° Southwest  Level Estimated
05:39PM 40.7952 -73.1002 237° Southwest  Level Estimated